Time;durP1;ratioP1;P1;durP2;ratioP2;P2;SDS_P1;SDS_P2;PMS_P1;PMS_P2;Temp;Humidity;BMP_temperature;BMP_pressure;BME280_temperature;BME280_humidity;BME280_pressure;Samples;Min_cycle;Max_cycle;Signal;HPM_P1;HPM_P2
2021/08/07 00:01:21;;;;;;;1.85;0.90;;;;;;;;;;4944033;29;20190;-80
2021/08/07 00:03:48;;;;;;;1.77;0.90;;;;;;;;;;4957638;29;20031;-83
2021/08/07 00:06:14;;;;;;;1.88;1.10;;;;;;;;;;4963010;28;20035;-81
2021/08/07 00:08:41;;;;;;;1.38;0.90;;;;;;;;;;4944209;28;20059;-80
2021/08/07 00:11:07;;;;;;;1.70;1.13;;;;;;;;;;4945903;28;20082;-81
2021/08/07 00:13:34;;;;;;;2.00;1.08;;;;;;;;;;4944360;28;20047;-80
2021/08/07 00:16:00;;;;;;;1.23;0.80;;;;;;;;;;4941968;28;20448;-82
2021/08/07 00:18:27;;;;;;;1.55;1.00;;;;;;;;;;4943892;28;20063;-83
2021/08/07 00:20:53;;;;;;;1.50;0.80;;;;;;;;;;4941432;28;20098;-82
2021/08/07 00:23:19;;;;;;;6.22;1.65;;;;;;;;;;4943182;29;20062;-82
2021/08/07 00:25:46;;;;;;;1.38;0.90;;;;;;;;;;4921423;29;20554;-82
2021/08/07 00:28:12;;;;;;;1.40;0.75;;;;;;;;;;4942721;28;20067;-82
2021/08/07 00:30:39;;;;;;;1.30;0.90;;;;;;;;;;4925312;29;20070;-81
2021/08/07 00:33:05;;;;;;;1.60;0.77;;;;;;;;;;4940420;29;20067;-81
2021/08/07 00:35:32;;;;;;;1.40;0.90;;;;;;;;;;4938686;29;20040;-81
2021/08/07 00:37:58;;;;;;;2.28;0.95;;;;;;;;;;4938329;29;20074;-81
2021/08/07 00:40:24;;;;;;;1.33;0.80;;;;;;;;;;4939830;28;20116;-80
2021/08/07 00:42:51;;;;;;;1.80;1.00;;;;;;;;;;4941860;29;20071;-81
2021/08/07 00:45:17;;;;;;;1.33;0.90;;;;;;;;;;4943729;28;20071;-81
2021/08/07 00:47:44;;;;;;;1.02;0.63;;;;;;;;;;4941921;28;20118;-81
2021/08/07 00:50:11;;;;;;;1.90;0.80;;;;;;;;;;4939159;29;20059;-81
2021/08/07 00:52:38;;;;;;;2.08;0.75;;;;;;;;;;4942314;28;20511;-80
2021/08/07 00:55:05;;;;;;;1.00;0.70;;;;;;;;;;4942648;28;20043;-80
2021/08/07 00:57:32;;;;;;;3.13;1.00;;;;;;;;;;4939864;28;20617;-80
2021/08/07 00:59:58;;;;;;;1.50;0.90;;;;;;;;;;4942127;28;20071;-80
2021/08/07 01:02:26;;;;;;;1.33;0.90;;;;;;;;;;4939587;28;20066;-81
2021/08/07 01:05:05;;;;;;;1.45;0.80;;;;;;;;;;4941723;28;20071;-80
2021/08/07 01:07:36;;;;;;;2.50;1.02;;;;;;;;;;4941983;28;20047;-81
2021/08/07 01:10:10;;;;;;;1.70;0.90;;;;;;;;;;4940965;29;20039;-81
2021/08/07 01:12:40;;;;;;;1.60;0.85;;;;;;;;;;4938515;28;20055;-79
2021/08/07 01:15:08;;;;;;;1.35;0.88;;;;;;;;;;4938016;28;20059;-79
2021/08/07 01:17:35;;;;;;;1.98;1.02;;;;;;;;;;4942607;28;20106;-79
2021/08/07 01:20:09;;;;;;;2.58;0.82;;;;;;;;;;4940015;28;20047;-80
2021/08/07 01:22:57;;;;;;;1.48;0.85;;;;;;;;;;4939945;29;20110;-80
2021/08/07 01:25:30;;;;;;;1.33;0.82;;;;;;;;;;4931055;28;20132;-80
2021/08/07 01:27:56;;;;;;;1.08;0.80;;;;;;;;;;4940823;28;20066;-80
2021/08/07 01:30:23;;;;;;;1.95;0.80;;;;;;;;;;4943078;28;20115;-78
2021/08/07 01:32:50;;;;;;;1.73;0.80;;;;;;;;;;4928546;29;20585;-78
2021/08/07 01:35:16;;;;;;;2.10;0.95;;;;;;;;;;4943421;29;20103;-77
2021/08/07 01:37:44;;;;;;;1.30;0.90;;;;;;;;;;4940916;28;20122;-79
2021/08/07 01:40:11;;;;;;;1.10;0.80;;;;;;;;;;4945017;29;20117;-79
2021/08/07 01:42:37;;;;;;;1.20;0.80;;;;;;;;;;4943052;28;20102;-79
2021/08/07 01:45:04;;;;;;;1.70;1.00;;;;;;;;;;4943196;28;20566;-78
2021/08/07 01:47:33;;;;;;;1.65;1.00;;;;;;;;;;4943709;28;20122;-78
2021/08/07 01:50:24;;;;;;;4.00;1.08;;;;;;;;;;4926191;29;20059;-81
2021/08/07 01:52:53;;;;;;;4.32;1.02;;;;;;;;;;4944308;28;20142;-81
2021/08/07 01:55:24;;;;;;;3.45;1.00;;;;;;;;;;4944392;29;20059;-80
2021/08/07 01:58:04;;;;;;;2.17;1.00;;;;;;;;;;4941683;28;20791;-81
2021/08/07 02:00:31;;;;;;;2.92;0.98;;;;;;;;;;4944169;28;20491;-83
2021/08/07 02:02:57;;;;;;;1.70;0.90;;;;;;;;;;4945265;28;20055;-79
2021/08/07 02:05:24;;;;;;;2.13;0.90;;;;;;;;;;4943784;28;20588;-80
2021/08/07 02:07:51;;;;;;;1.10;0.80;;;;;;;;;;4943493;28;20118;-80
2021/08/07 02:10:18;;;;;;;1.55;0.80;;;;;;;;;;4944069;29;20130;-79
2021/08/07 02:12:45;;;;;;;1.52;0.90;;;;;;;;;;4926868;28;20184;-80
2021/08/07 02:15:13;;;;;;;6.00;1.45;;;;;;;;;;4945379;29;20062;-78
2021/08/07 02:17:43;;;;;;;2.40;1.00;;;;;;;;;;4944128;28;20066;-78
2021/08/07 02:20:10;;;;;;;1.27;0.88;;;;;;;;;;4943801;28;20174;-80
2021/08/07 02:22:37;;;;;;;1.67;1.02;;;;;;;;;;4941952;28;20048;-79
2021/08/07 02:25:04;;;;;;;1.65;0.90;;;;;;;;;;4943112;28;20507;-82
2021/08/07 02:27:31;;;;;;;2.25;0.95;;;;;;;;;;4943146;28;20440;-79
2021/08/07 02:29:57;;;;;;;1.15;0.80;;;;;;;;;;4939612;28;20067;-81
2021/08/07 02:32:24;;;;;;;2.47;1.10;;;;;;;;;;4943511;28;20059;-80
2021/08/07 02:34:50;;;;;;;2.45;1.00;;;;;;;;;;4941127;28;20081;-80
2021/08/07 02:37:17;;;;;;;2.50;1.05;;;;;;;;;;4939324;28;20055;-80
2021/08/07 02:39:44;;;;;;;1.55;0.90;;;;;;;;;;4924305;28;20123;-79
2021/08/07 02:42:10;;;;;;;2.53;1.02;;;;;;;;;;4941881;28;20085;-80
2021/08/07 02:44:37;;;;;;;1.35;0.82;;;;;;;;;;4943012;29;20070;-79
2021/08/07 02:47:04;;;;;;;2.95;0.90;;;;;;;;;;4944451;29;20122;-78
2021/08/07 02:49:30;;;;;;;1.55;0.88;;;;;;;;;;4937362;28;20074;-78
2021/08/07 02:51:57;;;;;;;1.60;1.00;;;;;;;;;;4923193;29;20067;-78
2021/08/07 02:54:23;;;;;;;1.67;0.73;;;;;;;;;;4939210;28;20067;-79
2021/08/07 02:56:50;;;;;;;1.52;0.98;;;;;;;;;;4942675;29;20039;-78
2021/08/07 02:59:16;;;;;;;1.42;0.80;;;;;;;;;;4942981;29;20073;-79
2021/08/07 03:01:43;;;;;;;2.53;1.10;;;;;;;;;;4936786;28;20368;-78
2021/08/07 03:04:09;;;;;;;1.75;0.80;;;;;;;;;;4942579;29;20067;-79
2021/08/07 03:06:36;;;;;;;1.33;0.90;;;;;;;;;;4940526;28;20126;-79
2021/08/07 03:09:02;;;;;;;2.33;1.00;;;;;;;;;;4941329;29;20070;-79
2021/08/07 03:11:28;;;;;;;1.15;0.80;;;;;;;;;;4944027;28;20074;-79
2021/08/07 03:13:55;;;;;;;1.80;0.90;;;;;;;;;;4939954;28;20071;-78
2021/08/07 03:16:21;;;;;;;1.83;1.00;;;;;;;;;;4942171;28;20076;-79
2021/08/07 03:18:48;;;;;;;1.67;1.05;;;;;;;;;;4941083;28;20066;-79
2021/08/07 03:21:14;;;;;;;1.23;0.90;;;;;;;;;;4942089;28;20079;-79
2021/08/07 03:23:40;;;;;;;1.30;0.85;;;;;;;;;;4939664;28;20819;-78
2021/08/07 03:26:09;;;;;;;2.13;1.23;;;;;;;;;;4924159;29;20035;-78
2021/08/07 03:28:35;;;;;;;1.83;1.00;;;;;;;;;;4943289;28;20058;-78
2021/08/07 03:31:02;;;;;;;1.77;1.08;;;;;;;;;;4925168;29;20063;-80
2021/08/07 03:33:28;;;;;;;1.50;0.85;;;;;;;;;;4940910;29;20062;-80
2021/08/07 03:35:55;;;;;;;1.90;1.05;;;;;;;;;;4922604;29;20143;-81
2021/08/07 03:38:21;;;;;;;3.13;0.80;;;;;;;;;;4941489;29;20059;-81
2021/08/07 03:40:47;;;;;;;2.08;1.20;;;;;;;;;;4940080;28;20065;-80
2021/08/07 03:43:14;;;;;;;1.40;0.80;;;;;;;;;;4926327;29;20063;-80
2021/08/07 03:45:40;;;;;;;1.42;0.88;;;;;;;;;;4940608;29;20074;-80
2021/08/07 03:48:07;;;;;;;1.33;0.70;;;;;;;;;;4940071;28;20070;-79
2021/08/07 03:50:33;;;;;;;0.90;0.80;;;;;;;;;;4941494;29;20141;-79
2021/08/07 03:52:59;;;;;;;1.27;0.90;;;;;;;;;;4939912;28;20735;-79
2021/08/07 03:55:26;;;;;;;1.70;0.93;;;;;;;;;;4942638;29;20072;-79
2021/08/07 03:57:53;;;;;;;1.30;0.90;;;;;;;;;;4941662;28;20466;-78
2021/08/07 04:00:20;;;;;;;1.73;1.00;;;;;;;;;;4942591;29;20510;-78
2021/08/07 04:02:47;;;;;;;2.38;0.98;;;;;;;;;;4940741;28;20525;-78
2021/08/07 04:05:13;;;;;;;1.48;1.00;;;;;;;;;;4944678;28;20110;-79
2021/08/07 04:07:40;;;;;;;2.72;1.00;;;;;;;;;;4943037;28;20047;-78
2021/08/07 04:10:07;;;;;;;1.52;1.08;;;;;;;;;;4943568;29;20060;-79
2021/08/07 04:12:33;;;;;;;1.45;0.90;;;;;;;;;;4942748;28;20132;-78
2021/08/07 04:14:59;;;;;;;1.65;1.10;;;;;;;;;;4941236;28;20074;-79
2021/08/07 04:17:26;;;;;;;1.60;1.10;;;;;;;;;;4941160;28;20081;-79
2021/08/07 04:19:52;;;;;;;2.47;0.90;;;;;;;;;;4941671;28;20082;-79
2021/08/07 04:22:19;;;;;;;1.63;1.00;;;;;;;;;;4941115;28;20141;-79
2021/08/07 04:24:45;;;;;;;1.60;0.95;;;;;;;;;;4940872;29;20074;-80
2021/08/07 04:27:12;;;;;;;1.98;1.00;;;;;;;;;;4938406;28;20070;-78
2021/08/07 04:29:39;;;;;;;1.30;0.88;;;;;;;;;;4940317;28;20503;-78
2021/08/07 04:32:05;;;;;;;1.40;0.90;;;;;;;;;;4941673;28;20135;-80
2021/08/07 04:34:32;;;;;;;2.20;0.90;;;;;;;;;;4925176;29;20063;-80
2021/08/07 04:36:58;;;;;;;1.50;0.90;;;;;;;;;;4942535;28;20636;-80
2021/08/07 04:39:24;;;;;;;1.25;0.85;;;;;;;;;;4943594;28;20054;-80
2021/08/07 04:41:51;;;;;;;1.38;0.90;;;;;;;;;;4941157;28;20142;-80
2021/08/07 04:44:17;;;;;;;1.05;0.88;;;;;;;;;;4924510;29;20132;-78
2021/08/07 04:46:43;;;;;;;1.65;0.93;;;;;;;;;;4941007;28;20507;-78
2021/08/07 04:49:10;;;;;;;1.45;0.77;;;;;;;;;;4943033;28;20067;-78
2021/08/07 04:51:36;;;;;;;1.90;0.80;;;;;;;;;;4940724;28;20519;-79
2021/08/07 04:54:04;;;;;;;1.30;0.98;;;;;;;;;;4936934;28;20164;-78
2021/08/07 04:56:31;;;;;;;1.92;1.05;;;;;;;;;;4927351;29;20059;-79
2021/08/07 04:58:57;;;;;;;1.95;1.10;;;;;;;;;;4941687;28;20055;-79
2021/08/07 05:01:23;;;;;;;1.52;1.00;;;;;;;;;;4942514;28;20480;-79
2021/08/07 05:03:50;;;;;;;1.77;0.98;;;;;;;;;;4940623;28;20065;-78
2021/08/07 05:06:16;;;;;;;1.65;1.00;;;;;;;;;;4945264;28;20039;-78
2021/08/07 05:08:44;;;;;;;1.10;0.80;;;;;;;;;;4944621;28;20038;-78
2021/08/07 05:11:10;;;;;;;1.52;1.00;;;;;;;;;;4944083;28;20059;-79
2021/08/07 05:13:36;;;;;;;1.55;0.90;;;;;;;;;;4946657;28;20114;-79
2021/08/07 05:16:03;;;;;;;1.20;1.00;;;;;;;;;;4941896;28;20071;-79
2021/08/07 05:18:29;;;;;;;2.08;1.10;;;;;;;;;;4943665;29;20113;-79
2021/08/07 05:20:56;;;;;;;1.90;0.93;;;;;;;;;;4945316;29;20537;-80
2021/08/07 05:23:22;;;;;;;1.50;0.80;;;;;;;;;;4942682;28;20074;-79
2021/08/07 05:25:49;;;;;;;1.20;0.90;;;;;;;;;;4910320;29;20507;-78
2021/08/07 05:28:15;;;;;;;1.67;0.98;;;;;;;;;;4944535;29;20098;-80
2021/08/07 05:30:41;;;;;;;1.17;0.90;;;;;;;;;;4918951;28;20079;-79
2021/08/07 05:33:09;;;;;;;1.77;0.90;;;;;;;;;;4946575;28;20066;-81
2021/08/07 05:35:36;;;;;;;1.48;0.90;;;;;;;;;;4928932;29;20502;-82
2021/08/07 05:38:02;;;;;;;1.30;0.90;;;;;;;;;;4941937;28;20186;-82
2021/08/07 05:40:29;;;;;;;2.58;1.10;;;;;;;;;;4946299;29;20083;-81
2021/08/07 05:42:56;;;;;;;1.63;1.08;;;;;;;;;;4945739;29;20063;-81
2021/08/07 05:45:22;;;;;;;2.35;0.90;;;;;;;;;;4946327;28;20069;-82
2021/08/07 05:47:49;;;;;;;2.45;0.90;;;;;;;;;;4951423;28;20047;-81
2021/08/07 05:50:15;;;;;;;2.67;1.00;;;;;;;;;;4953775;28;20703;-82
2021/08/07 05:52:42;;;;;;;1.95;1.10;;;;;;;;;;4943188;29;20086;-81
2021/08/07 05:55:09;;;;;;;1.30;0.93;;;;;;;;;;4946107;28;20067;-81
2021/08/07 05:57:35;;;;;;;1.60;1.15;;;;;;;;;;4945977;28;20071;-82
2021/08/07 06:00:02;;;;;;;1.42;0.93;;;;;;;;;;4941198;29;20129;-86
2021/08/07 06:02:32;;;;;;;1.42;0.90;;;;;;;;;;4945799;28;20063;-83
2021/08/07 06:04:59;;;;;;;1.98;1.08;;;;;;;;;;4944722;28;20069;-82
2021/08/07 06:07:26;;;;;;;2.05;0.90;;;;;;;;;;4944350;29;20443;-81
2021/08/07 06:09:52;;;;;;;2.13;1.10;;;;;;;;;;4946138;28;20055;-80
2021/08/07 06:12:19;;;;;;;1.60;0.98;;;;;;;;;;4943595;28;20078;-80
2021/08/07 06:14:45;;;;;;;1.00;0.73;;;;;;;;;;4944161;28;20443;-80
2021/08/07 06:17:15;;;;;;;1.75;0.90;;;;;;;;;;4930973;29;20158;-81
2021/08/07 06:19:41;;;;;;;1.42;0.98;;;;;;;;;;4944150;28;20790;-79
2021/08/07 06:22:07;;;;;;;1.75;1.05;;;;;;;;;;4942477;28;20075;-81
2021/08/07 06:24:34;;;;;;;2.63;1.00;;;;;;;;;;4928259;29;20071;-83
2021/08/07 06:27:00;;;;;;;1.80;1.00;;;;;;;;;;4942391;29;20043;-81
2021/08/07 06:29:27;;;;;;;2.53;1.00;;;;;;;;;;4945444;28;20054;-84
2021/08/07 06:31:53;;;;;;;1.55;1.02;;;;;;;;;;4941457;29;20463;-82
2021/08/07 06:34:19;;;;;;;1.88;1.13;;;;;;;;;;4938098;28;20062;-82
2021/08/07 06:36:46;;;;;;;1.90;1.02;;;;;;;;;;4944066;28;20070;-84
2021/08/07 06:39:12;;;;;;;2.13;1.27;;;;;;;;;;4943218;28;20063;-87
2021/08/07 06:41:39;;;;;;;2.17;1.00;;;;;;;;;;4947459;28;20078;-87
2021/08/07 06:44:05;;;;;;;1.50;0.98;;;;;;;;;;4946489;29;20115;-87
2021/08/07 06:46:31;;;;;;;1.67;1.00;;;;;;;;;;4941925;28;20074;-86
2021/08/07 06:49:00;;;;;;;1.77;0.90;;;;;;;;;;4940356;28;21680;-87
2021/08/07 06:51:26;;;;;;;2.15;1.10;;;;;;;;;;4946185;28;20348;-87
2021/08/07 06:53:53;;;;;;;1.75;0.80;;;;;;;;;;4945706;29;20056;-89
2021/08/07 06:56:19;;;;;;;1.88;0.90;;;;;;;;;;4946171;28;20074;-89
2021/08/07 06:58:46;;;;;;;2.72;1.20;;;;;;;;;;4947610;28;20046;-87
2021/08/07 07:01:12;;;;;;;1.25;0.90;;;;;;;;;;4949864;28;20050;-87
2021/08/07 07:03:39;;;;;;;1.70;1.10;;;;;;;;;;4943712;29;20051;-86
2021/08/07 07:06:05;;;;;;;1.70;1.17;;;;;;;;;;4946343;29;20055;-86
2021/08/07 07:08:32;;;;;;;1.73;1.10;;;;;;;;;;4941230;29;20067;-85
2021/08/07 07:10:58;;;;;;;1.42;1.00;;;;;;;;;;4939977;28;20261;-86
2021/08/07 07:13:24;;;;;;;2.30;1.10;;;;;;;;;;4923350;29;20035;-87
2021/08/07 07:15:51;;;;;;;1.88;1.05;;;;;;;;;;4937444;28;20103;-91
2021/08/07 07:18:17;;;;;;;2.97;1.05;;;;;;;;;;4939681;29;20060;-88
2021/08/07 07:20:47;;;;;;;1.95;1.13;;;;;;;;;;4926933;29;20482;-89
2021/08/07 07:23:13;;;;;;;1.88;1.10;;;;;;;;;;4939981;29;20070;-87
2021/08/07 07:25:40;;;;;;;1.30;0.80;;;;;;;;;;4937938;28;20062;-86
2021/08/07 07:28:06;;;;;;;2.03;1.27;;;;;;;;;;4942518;28;20491;-86
2021/08/07 07:30:32;;;;;;;1.17;0.90;;;;;;;;;;4945872;28;20066;-84
2021/08/07 07:33:02;;;;;;;1.55;0.90;;;;;;;;;;4945571;29;20098;-86
2021/08/07 07:35:29;;;;;;;1.30;1.10;;;;;;;;;;4947447;28;20035;-84
2021/08/07 07:37:56;;;;;;;1.45;1.10;;;;;;;;;;4946367;28;20090;-86
2021/08/07 07:40:22;;;;;;;2.30;1.10;;;;;;;;;;4948161;28;20039;-86
2021/08/07 07:42:49;;;;;;;2.22;0.90;;;;;;;;;;4951429;29;20043;-86
2021/08/07 07:45:15;;;;;;;7.18;1.20;;;;;;;;;;4947628;29;20046;-87
2021/08/07 07:47:42;;;;;;;1.45;1.00;;;;;;;;;;4946172;28;20086;-87
2021/08/07 07:50:08;;;;;;;1.70;1.05;;;;;;;;;;4943661;28;20078;-86
2021/08/07 07:52:35;;;;;;;1.98;1.20;;;;;;;;;;4941648;29;20759;-87
2021/08/07 07:55:01;;;;;;;2.45;1.17;;;;;;;;;;4941205;29;20083;-86
2021/08/07 07:57:28;;;;;;;1.95;1.13;;;;;;;;;;4926512;29;20071;-86
2021/08/07 07:59:54;;;;;;;1.90;0.95;;;;;;;;;;4944137;28;20055;-88
2021/08/07 08:02:21;;;;;;;2.28;1.00;;;;;;;;;;4942508;28;20161;-87
2021/08/07 08:04:47;;;;;;;1.90;1.00;;;;;;;;;;4944927;28;20091;-88
2021/08/07 08:07:13;;;;;;;4.10;1.10;;;;;;;;;;4945142;29;20207;-86
2021/08/07 08:09:40;;;;;;;2.92;1.10;;;;;;;;;;4942380;29;20063;-89
2021/08/07 08:12:06;;;;;;;2.22;1.17;;;;;;;;;;4944251;28;20070;-87
2021/08/07 08:14:33;;;;;;;2.30;0.90;;;;;;;;;;4941654;29;20133;-87
2021/08/07 08:17:00;;;;;;;1.48;0.80;;;;;;;;;;4924376;28;20064;-92
2021/08/07 08:19:26;;;;;;;2.25;1.00;;;;;;;;;;4930280;28;20221;-92
2021/08/07 08:21:52;;;;;;;2.78;1.15;;;;;;;;;;4941026;29;20139;-91
2021/08/07 08:24:19;;;;;;;2.25;1.08;;;;;;;;;;4940271;28;20078;-87
2021/08/07 08:26:45;;;;;;;2.50;0.98;;;;;;;;;;4940498;28;20705;-91
2021/08/07 08:29:12;;;;;;;1.50;0.90;;;;;;;;;;4943796;28;20515;-90
2021/08/07 08:31:39;;;;;;;3.55;1.05;;;;;;;;;;4945608;28;20062;-89
2021/08/07 08:34:05;;;;;;;1.63;0.93;;;;;;;;;;4940095;28;20047;-90
2021/08/07 08:36:32;;;;;;;2.40;1.00;;;;;;;;;;4941018;29;20059;-91
2021/08/07 08:38:58;;;;;;;1.90;0.98;;;;;;;;;;4944749;28;20031;-88
2021/08/07 08:41:25;;;;;;;2.25;1.20;;;;;;;;;;4929684;29;20063;-89
2021/08/07 08:43:51;;;;;;;1.48;0.90;;;;;;;;;;4944671;28;20070;-89
2021/08/07 08:46:21;;;;;;;1.17;0.90;;;;;;;;;;4948942;28;20063;-88
2021/08/07 08:48:47;;;;;;;2.88;1.38;;;;;;;;;;4943504;29;20066;-89
2021/08/07 08:51:14;;;;;;;2.50;1.23;;;;;;;;;;4949823;29;20051;-90
2021/08/07 08:53:41;;;;;;;2.17;1.00;;;;;;;;;;4928266;29;20502;-89
2021/08/07 08:56:08;;;;;;;1.50;1.00;;;;;;;;;;4948872;29;20542;-90
2021/08/07 08:58:38;;;;;;;1.42;0.80;;;;;;;;;;4947551;28;20155;-90
2021/08/07 09:01:06;;;;;;;1.77;0.90;;;;;;;;;;4946712;28;22103;-90
2021/08/07 09:03:32;;;;;;;1.75;1.10;;;;;;;;;;4947539;28;20764;-89
2021/08/07 09:05:58;;;;;;;1.10;0.88;;;;;;;;;;4944377;29;20098;-89
2021/08/07 09:08:25;;;;;;;2.30;1.02;;;;;;;;;;4930312;28;20066;-89
2021/08/07 09:11:10;;;;;;;2.13;1.10;;;;;;;;;;4944954;28;20069;-90
2021/08/07 09:13:36;;;;;;;2.22;1.02;;;;;;;;;;4946587;29;20165;-89
2021/08/07 09:16:07;;;;;;;2.33;1.02;;;;;;;;;;4945297;28;20142;-89
2021/08/07 09:18:35;;;;;;;1.90;0.90;;;;;;;;;;4942134;29;20499;-89
2021/08/07 09:21:09;;;;;;;1.50;0.90;;;;;;;;;;4944711;28;20074;-89
2021/08/07 09:23:36;;;;;;;2.38;1.05;;;;;;;;;;4945249;28;20090;-88
2021/08/07 09:26:12;;;;;;;1.23;0.93;;;;;;;;;;4944743;29;20051;-90
2021/08/07 09:28:48;;;;;;;1.80;0.80;;;;;;;;;;4945646;29;20872;-86
2021/08/07 09:31:15;;;;;;;1.48;0.77;;;;;;;;;;4943203;28;20094;-87
2021/08/07 09:33:42;;;;;;;1.73;1.00;;;;;;;;;;4944001;28;20087;-89
2021/08/07 09:36:08;;;;;;;1.80;0.90;;;;;;;;;;4947715;28;21427;-87
2021/08/07 09:38:42;;;;;;;2.38;1.10;;;;;;;;;;4945009;28;20564;-87
2021/08/07 09:41:09;;;;;;;4.53;0.90;;;;;;;;;;4943198;28;21724;-91
2021/08/07 09:43:55;;;;;;;1.85;0.82;;;;;;;;;;4947078;28;20071;-90
2021/08/07 09:46:23;;;;;;;1.55;1.00;;;;;;;;;;4945438;28;20066;-89
2021/08/07 09:48:54;;;;;;;3.28;1.10;;;;;;;;;;4943827;28;20066;-89
2021/08/07 09:51:28;;;;;;;2.85;1.20;;;;;;;;;;4945544;29;20531;-89
2021/08/07 09:54:18;;;;;;;1.63;0.90;;;;;;;;;;4938626;28;20047;-90
2021/08/07 09:56:46;;;;;;;1.73;0.90;;;;;;;;;;4941895;28;20067;-88
2021/08/07 09:59:14;;;;;;;2.20;1.08;;;;;;;;;;4946566;28;20094;-91
2021/08/07 10:01:40;;;;;;;1.75;0.90;;;;;;;;;;4944760;28;20129;-91
2021/08/07 10:04:07;;;;;;;2.03;1.10;;;;;;;;;;4946976;28;20066;-89
2021/08/07 10:06:36;;;;;;;2.33;0.90;;;;;;;;;;4943401;28;20063;-90
2021/08/07 10:09:03;;;;;;;2.08;1.00;;;;;;;;;;4947347;28;20149;-90
2021/08/07 10:11:30;;;;;;;1.90;0.90;;;;;;;;;;4942775;28;20109;-89
2021/08/07 10:13:56;;;;;;;3.15;1.10;;;;;;;;;;4940020;28;20070;-79
2021/08/07 10:16:24;;;;;;;2.00;1.20;;;;;;;;;;4937955;28;20132;-81
2021/08/07 10:18:52;;;;;;;2.92;1.20;;;;;;;;;;4938003;28;20074;-88
2021/08/07 10:21:18;;;;;;;2.67;1.50;;;;;;;;;;4943343;28;20071;-83
2021/08/07 10:23:46;;;;;;;4.35;1.42;;;;;;;;;;4938795;29;20141;-84
2021/08/07 10:26:15;;;;;;;2.42;1.30;;;;;;;;;;4940291;28;20436;-81
2021/08/07 10:28:43;;;;;;;2.95;1.17;;;;;;;;;;4938436;28;20059;-80
2021/08/07 10:31:12;;;;;;;1.88;1.20;;;;;;;;;;4941556;28;20058;-82
2021/08/07 10:33:43;;;;;;;2.53;1.20;;;;;;;;;;4942129;29;20087;-82
2021/08/07 10:36:09;;;;;;;2.60;1.50;;;;;;;;;;4930261;29;20655;-83
2021/08/07 10:38:36;;;;;;;3.03;1.73;;;;;;;;;;4932453;29;20472;-83
2021/08/07 10:41:03;;;;;;;6.97;1.75;;;;;;;;;;4943830;28;20055;-81
2021/08/07 10:43:32;;;;;;;3.60;1.40;;;;;;;;;;4941278;28;20122;-85
2021/08/07 10:45:59;;;;;;;2.13;1.42;;;;;;;;;;4941766;28;20472;-86
2021/08/07 10:48:40;;;;;;;2.63;1.45;;;;;;;;;;4942470;28;20133;-79
2021/08/07 10:51:24;;;;;;;2.60;1.45;;;;;;;;;;4943033;28;21276;-79
2021/08/07 10:53:55;;;;;;;2.80;1.50;;;;;;;;;;4942538;28;20121;-77
2021/08/07 10:56:27;;;;;;;3.45;1.60;;;;;;;;;;4919895;28;21139;-80
2021/08/07 10:58:54;;;;;;;2.28;1.55;;;;;;;;;;4941887;28;20058;-79
2021/08/07 11:01:20;;;;;;;3.67;1.50;;;;;;;;;;4932608;28;20209;-78
2021/08/07 11:03:48;;;;;;;2.10;1.40;;;;;;;;;;4939411;28;20130;-78
2021/08/07 11:06:15;;;;;;;2.97;1.42;;;;;;;;;;4943488;28;20066;-79
2021/08/07 11:08:41;;;;;;;3.22;1.60;;;;;;;;;;4942441;29;20155;-79
2021/08/07 11:11:26;;;;;;;2.53;1.35;;;;;;;;;;4941969;29;20132;-79
2021/08/07 11:13:53;;;;;;;4.30;1.80;;;;;;;;;;4938950;29;20058;-77
2021/08/07 11:16:20;;;;;;;3.85;1.65;;;;;;;;;;4941246;28;20095;-77
2021/08/07 11:18:47;;;;;;;2.85;1.30;;;;;;;;;;4939454;28;20577;-77
2021/08/07 11:21:32;;;;;;;4.13;1.88;;;;;;;;;;4939325;29;20066;-78
2021/08/07 11:23:58;;;;;;;3.88;1.50;;;;;;;;;;4940171;28;20144;-77
2021/08/07 11:26:44;;;;;;;2.95;1.65;;;;;;;;;;4939084;29;20157;-76
2021/08/07 11:29:10;;;;;;;3.15;1.83;;;;;;;;;;4936605;29;20233;-76
2021/08/07 11:31:36;;;;;;;2.13;1.38;;;;;;;;;;4920911;29;20063;-86
2021/08/07 11:34:23;;;;;;;4.40;1.60;;;;;;;;;;4940335;29;20142;-80
2021/08/07 11:37:08;;;;;;;2.83;1.80;;;;;;;;;;4940359;28;20118;-81
2021/08/07 11:39:55;;;;;;;3.78;1.70;;;;;;;;;;4937351;29;20162;-81
2021/08/07 11:42:35;;;;;;;3.42;1.90;;;;;;;;;;4927742;28;20039;-82
2021/08/07 11:45:01;;;;;;;2.85;1.65;;;;;;;;;;4940126;28;20503;-82
2021/08/07 11:47:28;;;;;;;3.17;1.77;;;;;;;;;;4940034;28;20067;-81
2021/08/07 11:49:54;;;;;;;3.60;2.13;;;;;;;;;;4931727;28;20695;-82
2021/08/07 11:52:22;;;;;;;4.43;2.08;;;;;;;;;;4943441;28;20058;-82
2021/08/07 11:54:54;;;;;;;5.63;1.80;;;;;;;;;;4940637;28;20096;-81
2021/08/07 11:57:25;;;;;;;4.53;2.30;;;;;;;;;;4941613;28;20380;-81
2021/08/07 11:59:51;;;;;;;3.20;1.80;;;;;;;;;;4940059;28;20103;-81
2021/08/07 12:02:18;;;;;;;3.30;1.60;;;;;;;;;;4942134;28;20063;-82
2021/08/07 12:04:44;;;;;;;5.03;1.95;;;;;;;;;;4940721;28;20125;-81
2021/08/07 12:07:12;;;;;;;5.18;1.80;;;;;;;;;;4940913;28;20069;-82
2021/08/07 12:09:38;;;;;;;4.32;1.55;;;;;;;;;;4941722;28;20147;-82
2021/08/07 12:12:05;;;;;;;2.70;1.50;;;;;;;;;;4941254;28;20039;-81
2021/08/07 12:14:31;;;;;;;2.85;1.88;;;;;;;;;;4942392;28;20153;-82
2021/08/07 12:17:07;;;;;;;3.00;1.70;;;;;;;;;;4936002;28;20058;-82
2021/08/07 12:19:34;;;;;;;3.58;2.03;;;;;;;;;;4942722;28;20050;-82
2021/08/07 12:22:06;;;;;;;3.70;1.70;;;;;;;;;;4941525;29;20539;-83
2021/08/07 12:24:33;;;;;;;2.65;1.45;;;;;;;;;;4943529;29;20110;-82
2021/08/07 12:26:59;;;;;;;3.35;1.70;;;;;;;;;;4940879;28;20080;-82
2021/08/07 12:29:30;;;;;;;4.55;2.03;;;;;;;;;;4941467;29;20063;-83
2021/08/07 12:31:56;;;;;;;2.88;1.60;;;;;;;;;;4939254;28;20127;-81
2021/08/07 12:34:24;;;;;;;3.28;1.80;;;;;;;;;;4942365;29;20063;-81
2021/08/07 12:37:01;;;;;;;4.10;1.80;;;;;;;;;;4940702;29;20097;-82
2021/08/07 12:39:29;;;;;;;3.65;1.60;;;;;;;;;;4938335;29;20055;-82
2021/08/07 12:41:56;;;;;;;2.53;1.50;;;;;;;;;;4940172;28;20129;-80
2021/08/07 12:44:24;;;;;;;3.08;1.80;;;;;;;;;;4940570;28;20109;-81
2021/08/07 12:46:54;;;;;;;6.30;2.08;;;;;;;;;;4942103;28;20143;-81
2021/08/07 12:49:40;;;;;;;7.15;1.70;;;;;;;;;;4943544;29;20067;-81
2021/08/07 12:52:08;;;;;;;4.45;2.00;;;;;;;;;;4939918;28;20051;-81
2021/08/07 12:54:34;;;;;;;3.30;2.08;;;;;;;;;;4943361;28;20075;-82
2021/08/07 12:57:01;;;;;;;3.03;1.60;;;;;;;;;;4938476;29;20114;-81
2021/08/07 12:59:28;;;;;;;3.20;1.60;;;;;;;;;;4941546;28;20059;-82
2021/08/07 13:02:05;;;;;;;4.47;1.90;;;;;;;;;;4937884;28;20512;-81
2021/08/07 13:04:47;;;;;;;3.03;1.55;;;;;;;;;;4939327;29;20530;-81
2021/08/07 13:07:15;;;;;;;5.80;1.88;;;;;;;;;;4941220;28;21237;-81
2021/08/07 13:09:43;;;;;;;3.38;1.70;;;;;;;;;;4924836;29;20579;-81
2021/08/07 13:12:16;;;;;;;2.33;1.35;;;;;;;;;;4956405;28;20031;-82
2021/08/07 13:15:05;;;;;;;2.80;1.27;;;;;;;;;;4949961;29;20042;-81
2021/08/07 13:17:41;;;;;;;3.22;1.73;;;;;;;;;;4954575;28;20031;-81
2021/08/07 13:20:08;;;;;;;3.10;1.60;;;;;;;;;;4956298;28;20665;-82
2021/08/07 13:22:35;;;;;;;4.43;1.70;;;;;;;;;;4954001;28;20539;-81
2021/08/07 13:25:03;;;;;;;3.65;1.50;;;;;;;;;;4955868;28;20268;-81
2021/08/07 13:27:40;;;;;;;6.65;1.92;;;;;;;;;;4941665;29;20707;-82
2021/08/07 13:30:08;;;;;;;2.75;1.75;;;;;;;;;;4956138;28;21225;-81
2021/08/07 13:32:37;;;;;;;2.90;1.80;;;;;;;;;;4958507;29;20058;-79
2021/08/07 13:35:14;;;;;;;2.85;1.70;;;;;;;;;;4950687;28;20099;-81
2021/08/07 13:37:42;;;;;;;2.65;1.52;;;;;;;;;;4946618;29;20071;-80
2021/08/07 13:40:09;;;;;;;2.58;1.80;;;;;;;;;;4946541;29;20067;-81
2021/08/07 13:42:35;;;;;;;4.20;1.92;;;;;;;;;;4943140;29;20094;-81
2021/08/07 13:45:02;;;;;;;3.63;1.77;;;;;;;;;;4943014;29;20685;-81
2021/08/07 13:47:28;;;;;;;3.28;1.88;;;;;;;;;;4955352;29;20043;-80
2021/08/07 13:49:56;;;;;;;4.00;2.10;;;;;;;;;;4951896;28;20039;-81
2021/08/07 13:52:23;;;;;;;2.50;1.70;;;;;;;;;;4943221;29;20039;-80
2021/08/07 13:54:49;;;;;;;2.63;1.77;;;;;;;;;;4956812;28;20043;-81
2021/08/07 13:57:15;;;;;;;4.07;1.88;;;;;;;;;;4940453;29;20086;-81
2021/08/07 13:59:42;;;;;;;4.88;2.20;;;;;;;;;;4941840;28;20075;-80
2021/08/07 14:02:09;;;;;;;2.20;1.52;;;;;;;;;;4957030;29;20475;-81
2021/08/07 14:04:36;;;;;;;3.67;1.38;;;;;;;;;;4958813;28;20067;-81
2021/08/07 14:07:03;;;;;;;2.92;2.03;;;;;;;;;;4937642;29;20066;-81
2021/08/07 14:09:29;;;;;;;4.63;2.30;;;;;;;;;;4942329;29;20066;-81
2021/08/07 14:11:55;;;;;;;4.72;2.58;;;;;;;;;;4941734;28;20437;-81
2021/08/07 14:14:22;;;;;;;3.20;2.08;;;;;;;;;;4948460;29;20590;-81
2021/08/07 14:16:50;;;;;;;6.13;2.70;;;;;;;;;;4945469;28;20063;-80
2021/08/07 14:19:17;;;;;;;4.28;2.35;;;;;;;;;;4934040;29;20113;-79
2021/08/07 14:21:48;;;;;;;3.50;2.70;;;;;;;;;;4943918;28;20043;-81
2021/08/07 14:24:14;;;;;;;4.15;2.65;;;;;;;;;;4944211;28;20063;-82
2021/08/07 14:26:42;;;;;;;5.32;3.22;;;;;;;;;;4940927;28;20067;-81
2021/08/07 14:29:08;;;;;;;4.28;2.63;;;;;;;;;;4943062;28;20133;-82
2021/08/07 14:31:35;;;;;;;4.35;2.80;;;;;;;;;;4943802;28;20063;-81
2021/08/07 14:34:02;;;;;;;5.40;2.88;;;;;;;;;;4942099;29;20503;-82
2021/08/07 14:36:28;;;;;;;4.07;3.33;;;;;;;;;;4945501;28;20070;-81
2021/08/07 14:38:55;;;;;;;4.75;3.58;;;;;;;;;;4944318;28;20556;-81
2021/08/07 14:41:21;;;;;;;6.80;3.42;;;;;;;;;;4942377;28;20067;-82
2021/08/07 14:43:47;;;;;;;4.05;3.63;;;;;;;;;;4944245;28;20071;-81
2021/08/07 14:46:14;;;;;;;5.97;3.80;;;;;;;;;;4941077;28;20065;-82
2021/08/07 14:48:41;;;;;;;4.50;3.40;;;;;;;;;;4938660;29;20070;-81